sensor_id;sensor_type;location;lat;lon;timestamp;P1;durP1;ratioP1;P2;durP2;ratioP2
54705;SDS011;40603;48.774;8.916;2023-01-24T00:01:00;29.23;;;14.73;;
54705;SDS011;40603;48.774;8.916;2023-01-24T00:03:26;22.20;;;13.45;;
54705;SDS011;40603;48.774;8.916;2023-01-24T00:05:51;27.50;;;14.63;;
54705;SDS011;40603;48.774;8.916;2023-01-24T00:08:17;26.95;;;13.77;;
54705;SDS011;40603;48.774;8.916;2023-01-24T00:10:57;24.38;;;12.95;;
54705;SDS011;40603;48.774;8.916;2023-01-24T00:13:26;30.35;;;15.25;;
54705;SDS011;40603;48.774;8.916;2023-01-24T00:15:51;24.85;;;14.25;;
54705;SDS011;40603;48.774;8.916;2023-01-24T00:18:16;27.00;;;13.18;;
54705;SDS011;40603;48.774;8.916;2023-01-24T00:20:42;25.48;;;14.30;;
54705;SDS011;40603;48.774;8.916;2023-01-24T00:23:07;25.65;;;14.20;;
54705;SDS011;40603;48.774;8.916;2023-01-24T00:25:32;32.17;;;13.68;;
54705;SDS011;40603;48.774;8.916;2023-01-24T00:27:58;27.15;;;14.93;;
54705;SDS011;40603;48.774;8.916;2023-01-24T00:30:23;28.25;;;14.95;;
54705;SDS011;40603;48.774;8.916;2023-01-24T00:32:49;27.20;;;14.40;;
54705;SDS011;40603;48.774;8.916;2023-01-24T00:35:14;29.50;;;15.65;;
54705;SDS011;40603;48.774;8.916;2023-01-24T00:37:39;27.38;;;15.07;;
54705;SDS011;40603;48.774;8.916;2023-01-24T00:40:06;28.70;;;14.60;;
54705;SDS011;40603;48.774;8.916;2023-01-24T00:42:32;29.17;;;14.00;;
54705;SDS011;40603;48.774;8.916;2023-01-24T00:44:57;28.13;;;16.27;;
54705;SDS011;40603;48.774;8.916;2023-01-24T00:47:23;29.73;;;15.35;;
54705;SDS011;40603;48.774;8.916;2023-01-24T00:49:49;29.00;;;15.60;;
54705;SDS011;40603;48.774;8.916;2023-01-24T00:52:14;28.15;;;15.73;;
54705;SDS011;40603;48.774;8.916;2023-01-24T00:54:40;30.77;;;15.88;;
54705;SDS011;40603;48.774;8.916;2023-01-24T00:57:05;33.65;;;16.08;;
54705;SDS011;40603;48.774;8.916;2023-01-24T00:59:30;32.00;;;15.85;;
54705;SDS011;40603;48.774;8.916;2023-01-24T01:01:56;30.38;;;14.25;;
54705;SDS011;40603;48.774;8.916;2023-01-24T01:04:21;29.27;;;15.32;;
54705;SDS011;40603;48.774;8.916;2023-01-24T01:06:46;28.45;;;14.88;;
54705;SDS011;40603;48.774;8.916;2023-01-24T01:09:12;29.50;;;15.18;;
54705;SDS011;40603;48.774;8.916;2023-01-24T01:11:37;32.03;;;15.77;;
54705;SDS011;40603;48.774;8.916;2023-01-24T01:14:06;30.10;;;15.75;;
54705;SDS011;40603;48.774;8.916;2023-01-24T01:16:32;28.98;;;15.30;;
54705;SDS011;40603;48.774;8.916;2023-01-24T01:19:02;29.67;;;15.18;;
54705;SDS011;40603;48.774;8.916;2023-01-24T01:21:27;31.00;;;15.90;;
54705;SDS011;40603;48.774;8.916;2023-01-24T01:23:53;33.30;;;16.80;;
54705;SDS011;40603;48.774;8.916;2023-01-24T01:26:19;30.00;;;16.13;;
54705;SDS011;40603;48.774;8.916;2023-01-24T01:28:46;29.40;;;15.40;;
54705;SDS011;40603;48.774;8.916;2023-01-24T01:31:11;28.17;;;15.23;;
54705;SDS011;40603;48.774;8.916;2023-01-24T01:33:36;27.17;;;15.45;;
54705;SDS011;40603;48.774;8.916;2023-01-24T01:36:02;29.20;;;14.95;;
54705;SDS011;40603;48.774;8.916;2023-01-24T01:38:27;29.67;;;15.73;;
54705;SDS011;40603;48.774;8.916;2023-01-24T01:40:53;30.55;;;15.27;;
54705;SDS011;40603;48.774;8.916;2023-01-24T01:43:20;31.60;;;16.38;;
54705;SDS011;40603;48.774;8.916;2023-01-24T01:45:50;31.38;;;15.50;;
54705;SDS011;40603;48.774;8.916;2023-01-24T01:48:36;30.80;;;15.75;;
54705;SDS011;40603;48.774;8.916;2023-01-24T01:51:10;29.88;;;15.18;;
54705;SDS011;40603;48.774;8.916;2023-01-24T01:53:41;33.95;;;16.08;;
54705;SDS011;40603;48.774;8.916;2023-01-24T01:56:10;30.95;;;15.75;;
54705;SDS011;40603;48.774;8.916;2023-01-24T01:58:40;29.20;;;15.20;;
54705;SDS011;40603;48.774;8.916;2023-01-24T02:01:06;34.22;;;16.75;;
54705;SDS011;40603;48.774;8.916;2023-01-24T02:03:36;29.80;;;16.15;;
54705;SDS011;40603;48.774;8.916;2023-01-24T02:06:06;32.67;;;17.17;;
54705;SDS011;40603;48.774;8.916;2023-01-24T02:08:35;32.97;;;16.88;;
54705;SDS011;40603;48.774;8.916;2023-01-24T02:11:01;31.05;;;17.00;;
54705;SDS011;40603;48.774;8.916;2023-01-24T02:13:45;32.30;;;17.13;;
54705;SDS011;40603;48.774;8.916;2023-01-24T02:16:11;33.38;;;16.17;;
54705;SDS011;40603;48.774;8.916;2023-01-24T02:18:37;33.05;;;16.15;;
54705;SDS011;40603;48.774;8.916;2023-01-24T02:21:06;31.00;;;16.40;;
54705;SDS011;40603;48.774;8.916;2023-01-24T02:23:35;30.27;;;16.60;;
54705;SDS011;40603;48.774;8.916;2023-01-24T02:26:21;30.58;;;15.65;;
54705;SDS011;40603;48.774;8.916;2023-01-24T02:28:53;30.48;;;16.13;;
54705;SDS011;40603;48.774;8.916;2023-01-24T02:31:21;31.20;;;16.67;;
54705;SDS011;40603;48.774;8.916;2023-01-24T02:33:47;34.72;;;18.17;;
54705;SDS011;40603;48.774;8.916;2023-01-24T02:36:19;37.58;;;16.85;;
54705;SDS011;40603;48.774;8.916;2023-01-24T02:38:47;31.58;;;16.38;;
54705;SDS011;40603;48.774;8.916;2023-01-24T02:41:16;34.97;;;17.40;;
54705;SDS011;40603;48.774;8.916;2023-01-24T02:43:45;35.03;;;16.48;;
54705;SDS011;40603;48.774;8.916;2023-01-24T02:46:13;34.50;;;17.17;;
54705;SDS011;40603;48.774;8.916;2023-01-24T02:48:38;32.67;;;17.05;;
54705;SDS011;40603;48.774;8.916;2023-01-24T02:51:03;32.67;;;16.25;;
54705;SDS011;40603;48.774;8.916;2023-01-24T02:53:47;36.88;;;17.02;;
54705;SDS011;40603;48.774;8.916;2023-01-24T02:56:12;33.15;;;16.60;;
54705;SDS011;40603;48.774;8.916;2023-01-24T02:58:56;33.13;;;16.23;;
54705;SDS011;40603;48.774;8.916;2023-01-24T03:01:22;33.53;;;16.70;;
54705;SDS011;40603;48.774;8.916;2023-01-24T03:03:48;31.88;;;15.90;;
54705;SDS011;40603;48.774;8.916;2023-01-24T03:06:14;34.22;;;16.45;;
54705;SDS011;40603;48.774;8.916;2023-01-24T03:08:40;31.77;;;15.48;;
54705;SDS011;40603;48.774;8.916;2023-01-24T03:11:06;33.03;;;15.75;;
54705;SDS011;40603;48.774;8.916;2023-01-24T03:13:32;27.92;;;15.55;;
54705;SDS011;40603;48.774;8.916;2023-01-24T03:16:17;29.83;;;15.30;;
54705;SDS011;40603;48.774;8.916;2023-01-24T03:19:01;34.28;;;16.60;;
54705;SDS011;40603;48.774;8.916;2023-01-24T03:21:45;32.17;;;15.48;;
54705;SDS011;40603;48.774;8.916;2023-01-24T03:24:29;32.40;;;15.95;;
54705;SDS011;40603;48.774;8.916;2023-01-24T03:27:13;33.75;;;15.55;;
54705;SDS011;40603;48.774;8.916;2023-01-24T03:29:57;30.48;;;14.95;;
54705;SDS011;40603;48.774;8.916;2023-01-24T03:32:41;32.10;;;15.38;;
54705;SDS011;40603;48.774;8.916;2023-01-24T03:35:24;30.83;;;15.25;;
54705;SDS011;40603;48.774;8.916;2023-01-24T03:37:50;29.42;;;15.07;;
54705;SDS011;40603;48.774;8.916;2023-01-24T03:40:34;39.35;;;19.75;;
54705;SDS011;40603;48.774;8.916;2023-01-24T03:43:00;32.45;;;15.23;;
54705;SDS011;40603;48.774;8.916;2023-01-24T03:45:26;31.17;;;16.17;;
54705;SDS011;40603;48.774;8.916;2023-01-24T03:47:54;33.58;;;16.38;;
54705;SDS011;40603;48.774;8.916;2023-01-24T03:50:31;27.35;;;15.05;;
54705;SDS011;40603;48.774;8.916;2023-01-24T03:53:16;30.90;;;15.75;;
54705;SDS011;40603;48.774;8.916;2023-01-24T03:55:43;36.40;;;16.85;;
54705;SDS011;40603;48.774;8.916;2023-01-24T03:58:08;29.73;;;15.93;;
54705;SDS011;40603;48.774;8.916;2023-01-24T04:00:35;33.65;;;15.95;;
54705;SDS011;40603;48.774;8.916;2023-01-24T04:03:01;29.77;;;14.55;;
54705;SDS011;40603;48.774;8.916;2023-01-24T04:05:27;29.80;;;14.82;;
54705;SDS011;40603;48.774;8.916;2023-01-24T04:07:53;27.90;;;14.48;;
54705;SDS011;40603;48.774;8.916;2023-01-24T04:10:18;30.83;;;16.83;;
54705;SDS011;40603;48.774;8.916;2023-01-24T04:12:44;30.45;;;15.70;;
54705;SDS011;40603;48.774;8.916;2023-01-24T04:15:13;29.80;;;14.95;;
54705;SDS011;40603;48.774;8.916;2023-01-24T04:17:43;29.50;;;15.30;;
54705;SDS011;40603;48.774;8.916;2023-01-24T04:20:09;35.13;;;16.17;;
54705;SDS011;40603;48.774;8.916;2023-01-24T04:22:35;33.85;;;15.63;;
54705;SDS011;40603;48.774;8.916;2023-01-24T04:25:00;38.22;;;17.17;;
54705;SDS011;40603;48.774;8.916;2023-01-24T04:27:25;52.58;;;23.20;;
54705;SDS011;40603;48.774;8.916;2023-01-24T04:29:50;34.75;;;16.58;;
54705;SDS011;40603;48.774;8.916;2023-01-24T04:32:16;34.28;;;15.90;;
54705;SDS011;40603;48.774;8.916;2023-01-24T04:34:41;34.83;;;15.88;;
54705;SDS011;40603;48.774;8.916;2023-01-24T04:37:06;29.10;;;14.52;;
54705;SDS011;40603;48.774;8.916;2023-01-24T04:39:32;30.02;;;15.27;;
54705;SDS011;40603;48.774;8.916;2023-01-24T04:41:57;30.20;;;15.05;;
54705;SDS011;40603;48.774;8.916;2023-01-24T04:44:22;31.98;;;15.02;;
54705;SDS011;40603;48.774;8.916;2023-01-24T04:46:48;29.88;;;15.52;;
54705;SDS011;40603;48.774;8.916;2023-01-24T04:49:13;34.03;;;16.30;;
54705;SDS011;40603;48.774;8.916;2023-01-24T04:51:38;29.05;;;15.55;;
54705;SDS011;40603;48.774;8.916;2023-01-24T04:54:07;33.22;;;15.75;;
54705;SDS011;40603;48.774;8.916;2023-01-24T04:56:32;35.45;;;17.00;;
54705;SDS011;40603;48.774;8.916;2023-01-24T04:58:57;32.63;;;14.68;;
54705;SDS011;40603;48.774;8.916;2023-01-24T05:01:23;32.85;;;16.38;;
54705;SDS011;40603;48.774;8.916;2023-01-24T05:03:48;33.75;;;16.23;;
54705;SDS011;40603;48.774;8.916;2023-01-24T05:06:13;31.52;;;16.45;;
54705;SDS011;40603;48.774;8.916;2023-01-24T05:08:39;34.28;;;16.85;;
54705;SDS011;40603;48.774;8.916;2023-01-24T05:11:04;33.80;;;17.90;;
54705;SDS011;40603;48.774;8.916;2023-01-24T05:13:29;34.63;;;16.88;;
54705;SDS011;40603;48.774;8.916;2023-01-24T05:15:55;32.22;;;16.27;;
54705;SDS011;40603;48.774;8.916;2023-01-24T05:18:20;33.30;;;16.17;;
54705;SDS011;40603;48.774;8.916;2023-01-24T05:20:45;30.83;;;16.40;;
54705;SDS011;40603;48.774;8.916;2023-01-24T05:23:11;36.25;;;17.02;;
54705;SDS011;40603;48.774;8.916;2023-01-24T05:25:36;31.35;;;15.73;;
54705;SDS011;40603;48.774;8.916;2023-01-24T05:28:01;36.38;;;17.23;;
54705;SDS011;40603;48.774;8.916;2023-01-24T05:30:27;40.42;;;16.10;;
54705;SDS011;40603;48.774;8.916;2023-01-24T05:32:56;30.38;;;15.43;;
54705;SDS011;40603;48.774;8.916;2023-01-24T05:35:21;32.40;;;16.05;;
54705;SDS011;40603;48.774;8.916;2023-01-24T05:37:47;35.05;;;17.10;;
54705;SDS011;40603;48.774;8.916;2023-01-24T05:40:12;33.80;;;16.27;;
54705;SDS011;40603;48.774;8.916;2023-01-24T05:42:37;38.95;;;18.30;;
54705;SDS011;40603;48.774;8.916;2023-01-24T05:45:05;34.42;;;16.20;;
54705;SDS011;40603;48.774;8.916;2023-01-24T05:47:31;38.15;;;16.38;;
54705;SDS011;40603;48.774;8.916;2023-01-24T05:49:56;38.85;;;17.20;;
54705;SDS011;40603;48.774;8.916;2023-01-24T05:52:21;38.38;;;16.75;;
54705;SDS011;40603;48.774;8.916;2023-01-24T05:54:47;34.67;;;17.27;;
54705;SDS011;40603;48.774;8.916;2023-01-24T05:57:13;36.75;;;17.15;;
54705;SDS011;40603;48.774;8.916;2023-01-24T05:59:39;40.92;;;17.90;;
54705;SDS011;40603;48.774;8.916;2023-01-24T06:02:04;34.13;;;16.75;;
54705;SDS011;40603;48.774;8.916;2023-01-24T06:04:29;37.47;;;17.33;;
54705;SDS011;40603;48.774;8.916;2023-01-24T06:06:55;38.95;;;18.83;;
54705;SDS011;40603;48.774;8.916;2023-01-24T06:09:20;34.75;;;16.60;;
54705;SDS011;40603;48.774;8.916;2023-01-24T06:11:46;37.40;;;18.42;;
54705;SDS011;40603;48.774;8.916;2023-01-24T06:14:11;43.25;;;18.13;;
54705;SDS011;40603;48.774;8.916;2023-01-24T06:16:37;37.42;;;18.10;;
54705;SDS011;40603;48.774;8.916;2023-01-24T06:19:04;42.75;;;19.05;;
54705;SDS011;40603;48.774;8.916;2023-01-24T06:24:20;36.70;;;17.67;;
54705;SDS011;40603;48.774;8.916;2023-01-24T06:26:47;40.00;;;17.55;;
54705;SDS011;40603;48.774;8.916;2023-01-24T06:29:13;39.38;;;18.60;;
54705;SDS011;40603;48.774;8.916;2023-01-24T06:37:50;37.00;;;17.77;;
54705;SDS011;40603;48.774;8.916;2023-01-24T06:40:18;38.83;;;18.77;;
54705;SDS011;40603;48.774;8.916;2023-01-24T06:42:45;45.60;;;18.88;;
54705;SDS011;40603;48.774;8.916;2023-01-24T06:45:11;36.60;;;17.27;;
54705;SDS011;40603;48.774;8.916;2023-01-24T06:47:36;42.75;;;18.90;;
54705;SDS011;40603;48.774;8.916;2023-01-24T06:50:02;39.88;;;19.60;;
54705;SDS011;40603;48.774;8.916;2023-01-24T06:52:29;40.35;;;18.25;;
54705;SDS011;40603;48.774;8.916;2023-01-24T06:54:55;38.88;;;17.25;;
54705;SDS011;40603;48.774;8.916;2023-01-24T06:57:20;44.25;;;18.80;;
54705;SDS011;40603;48.774;8.916;2023-01-24T06:59:45;42.72;;;17.75;;
54705;SDS011;40603;48.774;8.916;2023-01-24T07:02:11;38.35;;;17.65;;
54705;SDS011;40603;48.774;8.916;2023-01-24T07:04:36;40.47;;;18.40;;
54705;SDS011;40603;48.774;8.916;2023-01-24T07:07:02;40.80;;;18.15;;
54705;SDS011;40603;48.774;8.916;2023-01-24T07:09:27;41.58;;;17.10;;
54705;SDS011;40603;48.774;8.916;2023-01-24T07:11:53;43.65;;;18.77;;
54705;SDS011;40603;48.774;8.916;2023-01-24T07:14:21;38.78;;;18.83;;
54705;SDS011;40603;48.774;8.916;2023-01-24T07:16:47;41.08;;;18.33;;
54705;SDS011;40603;48.774;8.916;2023-01-24T07:19:15;41.05;;;19.02;;
54705;SDS011;40603;48.774;8.916;2023-01-24T07:21:42;41.05;;;17.95;;
54705;SDS011;40603;48.774;8.916;2023-01-24T07:24:15;42.53;;;18.88;;
54705;SDS011;40603;48.774;8.916;2023-01-24T07:26:41;41.53;;;17.77;;
54705;SDS011;40603;48.774;8.916;2023-01-24T07:29:07;44.22;;;18.75;;
54705;SDS011;40603;48.774;8.916;2023-01-24T07:31:32;45.90;;;18.83;;
54705;SDS011;40603;48.774;8.916;2023-01-24T07:33:58;39.95;;;18.55;;
54705;SDS011;40603;48.774;8.916;2023-01-24T07:36:23;41.90;;;18.35;;
54705;SDS011;40603;48.774;8.916;2023-01-24T07:38:52;40.40;;;17.27;;
54705;SDS011;40603;48.774;8.916;2023-01-24T07:41:18;41.13;;;18.25;;
54705;SDS011;40603;48.774;8.916;2023-01-24T07:43:43;37.65;;;18.15;;
54705;SDS011;40603;48.774;8.916;2023-01-24T07:46:08;40.80;;;18.15;;
54705;SDS011;40603;48.774;8.916;2023-01-24T07:48:33;43.30;;;18.80;;
54705;SDS011;40603;48.774;8.916;2023-01-24T07:50:59;43.00;;;17.70;;
54705;SDS011;40603;48.774;8.916;2023-01-24T07:53:25;43.20;;;18.40;;
54705;SDS011;40603;48.774;8.916;2023-01-24T07:55:50;38.28;;;16.90;;
54705;SDS011;40603;48.774;8.916;2023-01-24T07:58:16;39.65;;;17.58;;
54705;SDS011;40603;48.774;8.916;2023-01-24T08:00:41;43.35;;;19.35;;
54705;SDS011;40603;48.774;8.916;2023-01-24T08:03:08;38.88;;;17.25;;
54705;SDS011;40603;48.774;8.916;2023-01-24T08:05:35;41.00;;;16.77;;
54705;SDS011;40603;48.774;8.916;2023-01-24T08:08:03;31.20;;;13.70;;
54705;SDS011;40603;48.774;8.916;2023-01-24T08:10:29;39.22;;;17.70;;
54705;SDS011;40603;48.774;8.916;2023-01-24T08:12:54;38.92;;;16.70;;
54705;SDS011;40603;48.774;8.916;2023-01-24T08:15:21;36.75;;;17.38;;
54705;SDS011;40603;48.774;8.916;2023-01-24T08:17:46;41.67;;;18.15;;
54705;SDS011;40603;48.774;8.916;2023-01-24T08:20:11;35.42;;;15.90;;
54705;SDS011;40603;48.774;8.916;2023-01-24T08:22:38;35.17;;;17.05;;
54705;SDS011;40603;48.774;8.916;2023-01-24T08:25:04;43.50;;;17.33;;
54705;SDS011;40603;48.774;8.916;2023-01-24T08:27:30;44.83;;;17.73;;
54705;SDS011;40603;48.774;8.916;2023-01-24T08:29:55;40.80;;;17.08;;
54705;SDS011;40603;48.774;8.916;2023-01-24T08:32:20;35.83;;;17.70;;
54705;SDS011;40603;48.774;8.916;2023-01-24T08:34:46;39.47;;;17.63;;
54705;SDS011;40603;48.774;8.916;2023-01-24T08:37:11;35.75;;;16.35;;
54705;SDS011;40603;48.774;8.916;2023-01-24T08:39:36;37.97;;;18.05;;
54705;SDS011;40603;48.774;8.916;2023-01-24T08:42:02;35.42;;;17.17;;
54705;SDS011;40603;48.774;8.916;2023-01-24T08:44:27;35.50;;;16.23;;
54705;SDS011;40603;48.774;8.916;2023-01-24T08:46:52;32.25;;;15.98;;
54705;SDS011;40603;48.774;8.916;2023-01-24T08:49:17;39.47;;;17.95;;
54705;SDS011;40603;48.774;8.916;2023-01-24T08:51:43;34.92;;;16.83;;
54705;SDS011;40603;48.774;8.916;2023-01-24T08:54:08;36.33;;;17.02;;
54705;SDS011;40603;48.774;8.916;2023-01-24T08:56:34;37.83;;;16.25;;
54705;SDS011;40603;48.774;8.916;2023-01-24T08:58:59;44.22;;;17.77;;
54705;SDS011;40603;48.774;8.916;2023-01-24T09:01:25;40.58;;;16.95;;
54705;SDS011;40603;48.774;8.916;2023-01-24T09:03:51;41.65;;;18.05;;
54705;SDS011;40603;48.774;8.916;2023-01-24T09:06:19;38.65;;;17.00;;
54705;SDS011;40603;48.774;8.916;2023-01-24T09:08:45;40.83;;;17.65;;
54705;SDS011;40603;48.774;8.916;2023-01-24T09:11:10;37.28;;;16.08;;
54705;SDS011;40603;48.774;8.916;2023-01-24T09:13:35;35.20;;;17.05;;
54705;SDS011;40603;48.774;8.916;2023-01-24T09:16:01;37.85;;;17.85;;
54705;SDS011;40603;48.774;8.916;2023-01-24T09:18:26;29.58;;;15.57;;
54705;SDS011;40603;48.774;8.916;2023-01-24T09:20:51;33.00;;;16.20;;
54705;SDS011;40603;48.774;8.916;2023-01-24T09:23:17;35.58;;;16.35;;
54705;SDS011;40603;48.774;8.916;2023-01-24T09:25:48;33.63;;;15.45;;
54705;SDS011;40603;48.774;8.916;2023-01-24T09:28:14;35.03;;;16.40;;
54705;SDS011;40603;48.774;8.916;2023-01-24T09:30:40;31.52;;;15.73;;
54705;SDS011;40603;48.774;8.916;2023-01-24T09:33:05;37.72;;;15.95;;
54705;SDS011;40603;48.774;8.916;2023-01-24T09:35:30;34.65;;;15.75;;
54705;SDS011;40603;48.774;8.916;2023-01-24T09:37:55;38.85;;;16.95;;
54705;SDS011;40603;48.774;8.916;2023-01-24T09:40:23;32.30;;;16.02;;
54705;SDS011;40603;48.774;8.916;2023-01-24T09:43:01;36.60;;;16.30;;
54705;SDS011;40603;48.774;8.916;2023-01-24T09:45:30;33.50;;;15.77;;
54705;SDS011;40603;48.774;8.916;2023-01-24T09:47:59;33.13;;;15.32;;
54705;SDS011;40603;48.774;8.916;2023-01-24T09:50:38;34.33;;;16.88;;
54705;SDS011;40603;48.774;8.916;2023-01-24T09:53:12;35.95;;;15.02;;
54705;SDS011;40603;48.774;8.916;2023-01-24T09:55:40;29.70;;;15.73;;
54705;SDS011;40603;48.774;8.916;2023-01-24T10:01:02;32.58;;;15.98;;
54705;SDS011;40603;48.774;8.916;2023-01-24T10:03:30;36.30;;;17.08;;
54705;SDS011;40603;48.774;8.916;2023-01-24T10:05:56;33.47;;;15.85;;
54705;SDS011;40603;48.774;8.916;2023-01-24T10:11:17;35.63;;;16.45;;
54705;SDS011;40603;48.774;8.916;2023-01-24T10:13:55;33.53;;;16.30;;
54705;SDS011;40603;48.774;8.916;2023-01-24T10:16:26;31.38;;;14.25;;
54705;SDS011;40603;48.774;8.916;2023-01-24T10:19:17;33.70;;;16.00;;
54705;SDS011;40603;48.774;8.916;2023-01-24T10:22:06;32.70;;;15.10;;
54705;SDS011;40603;48.774;8.916;2023-01-24T10:24:34;32.08;;;16.27;;
54705;SDS011;40603;48.774;8.916;2023-01-24T10:27:05;34.53;;;15.35;;
54705;SDS011;40603;48.774;8.916;2023-01-24T10:29:40;29.50;;;13.82;;
54705;SDS011;40603;48.774;8.916;2023-01-24T10:32:11;31.33;;;14.68;;
54705;SDS011;40603;48.774;8.916;2023-01-24T10:39:34;28.98;;;15.10;;
54705;SDS011;40603;48.774;8.916;2023-01-24T10:42:00;30.98;;;15.35;;
54705;SDS011;40603;48.774;8.916;2023-01-24T10:44:34;28.38;;;14.95;;
54705;SDS011;40603;48.774;8.916;2023-01-24T10:49:44;29.83;;;14.20;;
54705;SDS011;40603;48.774;8.916;2023-01-24T10:52:16;30.20;;;14.75;;
54705;SDS011;40603;48.774;8.916;2023-01-24T10:54:44;31.65;;;14.43;;
54705;SDS011;40603;48.774;8.916;2023-01-24T10:59:54;26.23;;;14.07;;
54705;SDS011;40603;48.774;8.916;2023-01-24T11:02:21;26.52;;;13.27;;
54705;SDS011;40603;48.774;8.916;2023-01-24T11:04:52;30.33;;;14.65;;
54705;SDS011;40603;48.774;8.916;2023-01-24T11:07:28;30.45;;;13.38;;
54705;SDS011;40603;48.774;8.916;2023-01-24T11:09:57;27.08;;;13.32;;
54705;SDS011;40603;48.774;8.916;2023-01-24T11:12:24;30.17;;;13.90;;
54705;SDS011;40603;48.774;8.916;2023-01-24T11:14:49;28.95;;;13.75;;
54705;SDS011;40603;48.774;8.916;2023-01-24T11:17:36;26.13;;;13.07;;
54705;SDS011;40603;48.774;8.916;2023-01-24T11:22:48;34.70;;;12.23;;
54705;SDS011;40603;48.774;8.916;2023-01-24T11:25:14;25.63;;;14.05;;
54705;SDS011;40603;48.774;8.916;2023-01-24T11:27:47;31.00;;;13.90;;
54705;SDS011;40603;48.774;8.916;2023-01-24T11:32:41;23.13;;;12.65;;
54705;SDS011;40603;48.774;8.916;2023-01-24T11:35:20;30.08;;;12.80;;
54705;SDS011;40603;48.774;8.916;2023-01-24T11:48:22;24.48;;;12.48;;
54705;SDS011;40603;48.774;8.916;2023-01-24T12:01:58;22.38;;;11.27;;
54705;SDS011;40603;48.774;8.916;2023-01-24T12:10:14;19.60;;;11.27;;
54705;SDS011;40603;48.774;8.916;2023-01-24T12:12:49;25.00;;;11.77;;
54705;SDS011;40603;48.774;8.916;2023-01-24T12:15:23;20.35;;;10.52;;
54705;SDS011;40603;48.774;8.916;2023-01-24T12:18:01;17.88;;;10.38;;
54705;SDS011;40603;48.774;8.916;2023-01-24T12:20:51;24.67;;;11.82;;
54705;SDS011;40603;48.774;8.916;2023-01-24T12:23:31;19.55;;;10.80;;
54705;SDS011;40603;48.774;8.916;2023-01-24T12:26:21;23.42;;;11.02;;
54705;SDS011;40603;48.774;8.916;2023-01-24T12:34:45;22.20;;;10.88;;
54705;SDS011;40603;48.774;8.916;2023-01-24T12:39:52;20.58;;;11.18;;
54705;SDS011;40603;48.774;8.916;2023-01-24T12:42:25;20.77;;;11.00;;
54705;SDS011;40603;48.774;8.916;2023-01-24T12:45:01;19.40;;;10.20;;
54705;SDS011;40603;48.774;8.916;2023-01-24T12:47:40;23.00;;;11.15;;
54705;SDS011;40603;48.774;8.916;2023-01-24T12:55:24;21.15;;;10.30;;
54705;SDS011;40603;48.774;8.916;2023-01-24T12:57:53;22.20;;;10.90;;
54705;SDS011;40603;48.774;8.916;2023-01-24T13:00:23;19.83;;;9.88;;
54705;SDS011;40603;48.774;8.916;2023-01-24T13:02:56;23.13;;;11.00;;
54705;SDS011;40603;48.774;8.916;2023-01-24T13:08:13;23.55;;;11.45;;
54705;SDS011;40603;48.774;8.916;2023-01-24T13:10:59;20.85;;;10.10;;
54705;SDS011;40603;48.774;8.916;2023-01-24T13:13:28;20.17;;;10.07;;
54705;SDS011;40603;48.774;8.916;2023-01-24T13:19:08;18.20;;;9.30;;
54705;SDS011;40603;48.774;8.916;2023-01-24T13:21:38;19.08;;;9.65;;
54705;SDS011;40603;48.774;8.916;2023-01-24T13:24:17;16.38;;;9.55;;
54705;SDS011;40603;48.774;8.916;2023-01-24T13:26:51;20.45;;;10.77;;
54705;SDS011;40603;48.774;8.916;2023-01-24T13:32:05;18.42;;;9.00;;
54705;SDS011;40603;48.774;8.916;2023-01-24T13:34:33;14.93;;;8.73;;
54705;SDS011;40603;48.774;8.916;2023-01-24T13:37:26;16.15;;;8.85;;
54705;SDS011;40603;48.774;8.916;2023-01-24T13:40:17;17.73;;;9.48;;
54705;SDS011;40603;48.774;8.916;2023-01-24T13:42:46;18.52;;;9.57;;
54705;SDS011;40603;48.774;8.916;2023-01-24T13:45:40;17.10;;;9.95;;
54705;SDS011;40603;48.774;8.916;2023-01-24T13:56:25;17.13;;;9.35;;
54705;SDS011;40603;48.774;8.916;2023-01-24T13:58:51;17.50;;;8.75;;
54705;SDS011;40603;48.774;8.916;2023-01-24T14:01:17;20.13;;;9.95;;
54705;SDS011;40603;48.774;8.916;2023-01-24T14:03:52;14.88;;;8.85;;
54705;SDS011;40603;48.774;8.916;2023-01-24T14:06:19;15.60;;;8.82;;
54705;SDS011;40603;48.774;8.916;2023-01-24T14:08:45;15.13;;;8.30;;
54705;SDS011;40603;48.774;8.916;2023-01-24T14:18:53;18.55;;;9.15;;
54705;SDS011;40603;48.774;8.916;2023-01-24T14:21:27;18.30;;;8.50;;
54705;SDS011;40603;48.774;8.916;2023-01-24T14:23:56;16.90;;;9.48;;
54705;SDS011;40603;48.774;8.916;2023-01-24T14:26:24;19.45;;;9.25;;
54705;SDS011;40603;48.774;8.916;2023-01-24T14:28:55;19.95;;;8.57;;
54705;SDS011;40603;48.774;8.916;2023-01-24T14:31:24;15.80;;;9.02;;
54705;SDS011;40603;48.774;8.916;2023-01-24T14:33:55;17.90;;;8.73;;
54705;SDS011;40603;48.774;8.916;2023-01-24T14:36:28;19.90;;;9.43;;
54705;SDS011;40603;48.774;8.916;2023-01-24T14:41:44;19.80;;;8.70;;
54705;SDS011;40603;48.774;8.916;2023-01-24T14:44:27;19.63;;;9.25;;
54705;SDS011;40603;48.774;8.916;2023-01-24T14:46:58;18.83;;;9.98;;
54705;SDS011;40603;48.774;8.916;2023-01-24T14:49:32;16.90;;;9.13;;
54705;SDS011;40603;48.774;8.916;2023-01-24T14:51:59;22.13;;;9.73;;
54705;SDS011;40603;48.774;8.916;2023-01-24T14:54:25;17.63;;;9.43;;
54705;SDS011;40603;48.774;8.916;2023-01-24T14:56:51;18.25;;;9.77;;
54705;SDS011;40603;48.774;8.916;2023-01-24T14:59:17;18.98;;;8.52;;
54705;SDS011;40603;48.774;8.916;2023-01-24T15:01:43;15.27;;;9.48;;
54705;SDS011;40603;48.774;8.916;2023-01-24T15:04:27;15.85;;;9.02;;
54705;SDS011;40603;48.774;8.916;2023-01-24T15:07:13;17.60;;;9.60;;
54705;SDS011;40603;48.774;8.916;2023-01-24T15:09:39;20.92;;;10.25;;
54705;SDS011;40603;48.774;8.916;2023-01-24T15:14:59;19.08;;;9.98;;
54705;SDS011;40603;48.774;8.916;2023-01-24T15:17:29;21.13;;;10.90;;
54705;SDS011;40603;48.774;8.916;2023-01-24T15:20:18;24.20;;;10.10;;
54705;SDS011;40603;48.774;8.916;2023-01-24T15:22:42;19.00;;;10.43;;
54705;SDS011;40603;48.774;8.916;2023-01-24T15:27:47;21.77;;;11.77;;
54705;SDS011;40603;48.774;8.916;2023-01-24T15:30:20;25.05;;;11.05;;
54705;SDS011;40603;48.774;8.916;2023-01-24T15:32:49;21.08;;;10.82;;
54705;SDS011;40603;48.774;8.916;2023-01-24T15:38:16;22.63;;;10.80;;
54705;SDS011;40603;48.774;8.916;2023-01-24T15:43:15;26.00;;;12.45;;
54705;SDS011;40603;48.774;8.916;2023-01-24T15:46:01;23.90;;;11.80;;
54705;SDS011;40603;48.774;8.916;2023-01-24T15:49:54;20.30;;;10.52;;
54705;SDS011;40603;48.774;8.916;2023-01-24T15:54:29;24.15;;;11.27;;
54705;SDS011;40603;48.774;8.916;2023-01-24T15:56:57;25.70;;;11.88;;
54705;SDS011;40603;48.774;8.916;2023-01-24T15:59:23;29.50;;;12.30;;
54705;SDS011;40603;48.774;8.916;2023-01-24T16:01:49;23.77;;;12.27;;
54705;SDS011;40603;48.774;8.916;2023-01-24T16:04:15;23.38;;;12.02;;
54705;SDS011;40603;48.774;8.916;2023-01-24T16:06:42;24.25;;;12.82;;
54705;SDS011;40603;48.774;8.916;2023-01-24T16:09:07;23.35;;;11.40;;
54705;SDS011;40603;48.774;8.916;2023-01-24T16:11:36;23.85;;;13.15;;
54705;SDS011;40603;48.774;8.916;2023-01-24T16:14:02;27.80;;;12.85;;
54705;SDS011;40603;48.774;8.916;2023-01-24T16:16:27;23.55;;;11.85;;
54705;SDS011;40603;48.774;8.916;2023-01-24T16:18:53;26.65;;;12.48;;
54705;SDS011;40603;48.774;8.916;2023-01-24T16:21:18;28.63;;;13.23;;
54705;SDS011;40603;48.774;8.916;2023-01-24T16:23:43;24.58;;;13.70;;
54705;SDS011;40603;48.774;8.916;2023-01-24T16:26:16;30.00;;;13.80;;